createdAt,value
2022-11-16T00:02:14.986Z,8.01
2022-11-16T00:04:42.159Z,8.04
2022-11-16T00:07:10.551Z,7.98
2022-11-16T00:09:41.644Z,8.01
2022-11-16T00:12:11.155Z,8.04
2022-11-16T00:14:42.824Z,8.01
2022-11-16T00:17:11.686Z,7.91
2022-11-16T00:19:39.283Z,7.92
2022-11-16T00:22:06.250Z,7.81
2022-11-16T00:24:36.039Z,7.80
2022-11-16T00:27:06.835Z,7.85
2022-11-16T00:29:33.956Z,7.86
2022-11-16T00:32:01.239Z,7.93
2022-11-16T00:34:28.227Z,7.94
2022-11-16T00:36:57.756Z,7.87
2022-11-16T00:39:25.371Z,7.94
2022-11-16T00:41:55.501Z,7.90
2022-11-16T00:44:23.571Z,7.84
2022-11-16T00:46:50.596Z,7.90
2022-11-16T00:49:20.182Z,7.82
2022-11-16T00:51:47.004Z,7.90
2022-11-16T00:54:13.834Z,8.00
2022-11-16T00:56:40.884Z,8.07
2022-11-16T00:59:07.956Z,7.98
2022-11-16T01:01:35.372Z,8.03
2022-11-16T01:04:02.228Z,8.07
2022-11-16T01:06:29.466Z,8.05
2022-11-16T01:08:56.863Z,8.02
2022-11-16T01:11:42.519Z,8.02
2022-11-16T01:14:10.440Z,8.03
2022-11-16T01:16:37.646Z,8.12
2022-11-16T01:19:05.687Z,8.15
2022-11-16T01:21:33.230Z,8.14
2022-11-16T01:24:00.791Z,8.11
2022-11-16T01:26:28.347Z,8.09
2022-11-16T01:28:55.352Z,8.10
2022-11-16T01:31:23.115Z,8.19
2022-11-16T01:33:51.320Z,8.13
2022-11-16T01:36:19.511Z,8.10
2022-11-16T01:38:50.778Z,8.10
2022-11-16T01:41:21.060Z,8.02
2022-11-16T01:44:02.697Z,8.05
2022-11-16T01:46:31.301Z,8.11
2022-11-16T01:49:06.045Z,8.03
2022-11-16T01:51:34.248Z,8.04
2022-11-16T01:54:05.901Z,7.98
2022-11-16T01:56:33.562Z,7.98
2022-11-16T01:59:00.438Z,8.02
2022-11-16T02:01:27.550Z,7.98
2022-11-16T02:03:54.380Z,8.08
2022-11-16T02:06:33.140Z,8.05
2022-11-16T02:09:39.974Z,8.02
2022-11-16T02:12:09.549Z,8.00
2022-11-16T02:14:49.930Z,8.04
2022-11-16T02:17:36.765Z,8.11
2022-11-16T02:20:31.488Z,8.14
2022-11-16T02:23:13.506Z,8.04
2022-11-16T02:26:20.066Z,8.04
2022-11-16T02:28:46.948Z,7.97
2022-11-16T02:31:29.618Z,7.95
2022-11-16T02:33:57.715Z,7.94
2022-11-16T02:36:25.847Z,7.97
2022-11-16T02:39:01.358Z,7.96
2022-11-16T02:41:32.579Z,7.93
2022-11-16T02:44:08.768Z,7.90
2022-11-16T02:46:44.381Z,8.02
2022-11-16T02:49:17.745Z,7.89
2022-11-16T02:51:51.086Z,7.82
2022-11-16T02:54:20.549Z,7.78
2022-11-16T02:57:03.222Z,7.81
2022-11-16T02:59:54.208Z,7.89
2022-11-16T03:02:46.915Z,7.87
2022-11-16T03:05:39.947Z,7.87
2022-11-16T03:08:19.345Z,7.84
2022-11-16T03:11:10.397Z,7.76
2022-11-16T03:13:41.123Z,7.69
2022-11-16T03:16:22.158Z,7.74
2022-11-16T03:18:52.301Z,7.65
2022-11-16T03:21:29.938Z,7.58
2022-11-16T03:23:57.876Z,7.51
2022-11-16T03:26:30.865Z,7.48
2022-11-16T03:29:05.783Z,7.45
2022-11-16T03:31:42.243Z,7.54
2022-11-16T03:34:16.558Z,7.59
2022-11-16T03:36:49.947Z,7.48
2022-11-16T03:39:33.398Z,7.49
2022-11-16T03:42:12.465Z,7.58
2022-11-16T03:44:39.269Z,7.50
2022-11-16T03:47:06.871Z,7.47
2022-11-16T03:49:33.857Z,7.37
2022-11-16T03:52:00.835Z,7.40
2022-11-16T03:54:27.783Z,7.38
2022-11-16T03:56:54.862Z,7.54
2022-11-16T03:59:21.537Z,7.45
2022-11-16T04:01:50.726Z,7.52
2022-11-16T04:04:36.421Z,7.51
2022-11-16T04:07:21.742Z,7.50
2022-11-16T04:10:07.071Z,7.42
2022-11-16T04:12:52.940Z,7.37
2022-11-16T04:15:42.931Z,7.34
2022-11-16T04:18:29.192Z,7.36
2022-11-16T04:21:15.743Z,7.37
2022-11-16T04:24:01.459Z,7.31
2022-11-16T04:26:57.144Z,7.25
2022-11-16T04:29:25.700Z,7.22
2022-11-16T04:32:11.456Z,7.19
2022-11-16T04:34:56.816Z,7.05
2022-11-16T04:37:41.931Z,7.22
2022-11-16T04:40:12.319Z,7.15
2022-11-16T04:42:39.451Z,7.13
2022-11-16T04:45:25.069Z,7.22
2022-11-16T04:47:52.703Z,7.27
2022-11-16T04:50:20.658Z,7.34
2022-11-16T04:52:47.717Z,7.33
2022-11-16T04:55:14.799Z,7.34
2022-11-16T04:57:41.852Z,7.15
2022-11-16T05:00:09.180Z,7.05
2022-11-16T05:02:37.328Z,7.09
2022-11-16T05:05:04.593Z,7.05
2022-11-16T05:07:31.743Z,6.89
2022-11-16T05:09:59.740Z,6.84
2022-11-16T05:12:28.596Z,6.88
2022-11-16T05:15:15.487Z,6.86
2022-11-16T05:17:42.911Z,6.85
2022-11-16T05:20:29.353Z,6.79
2022-11-16T05:22:58.132Z,6.76
2022-11-16T05:25:25.084Z,6.75
2022-11-16T05:27:57.452Z,6.68
2022-11-16T05:30:24.145Z,6.75
2022-11-16T05:32:51.175Z,6.80
2022-11-16T05:35:18.118Z,6.85
2022-11-16T05:37:45.128Z,6.76
2022-11-16T05:40:16.231Z,6.79
2022-11-16T05:42:43.121Z,6.77
2022-11-16T05:45:18.439Z,6.83
2022-11-16T05:47:49.907Z,6.86
2022-11-16T05:50:19.937Z,6.71
2022-11-16T05:52:46.936Z,6.68
2022-11-16T05:55:17.121Z,6.78
2022-11-16T05:57:44.063Z,6.82
2022-11-16T06:00:12.984Z,6.84
2022-11-16T06:02:39.480Z,6.82
2022-11-16T06:05:06.043Z,6.92
2022-11-16T06:07:34.143Z,6.91
2022-11-16T06:10:00.633Z,6.93
2022-11-16T06:12:26.977Z,6.91
2022-11-16T06:14:53.357Z,6.91
2022-11-16T06:17:19.688Z,6.89
2022-11-16T06:19:46.129Z,6.85
2022-11-16T06:22:12.534Z,6.75
2022-11-16T06:24:38.919Z,6.77
2022-11-16T06:27:05.351Z,6.86
2022-11-16T06:29:31.798Z,6.86
2022-11-16T06:31:58.186Z,6.76
2022-11-16T06:34:25.070Z,6.84
2022-11-16T06:36:51.584Z,6.93
2022-11-16T06:39:18.047Z,6.91
2022-11-16T06:41:44.477Z,6.87
2022-11-16T06:44:11.084Z,6.84
2022-11-16T06:46:37.498Z,6.90
2022-11-16T06:49:04.093Z,6.92
2022-11-16T06:51:30.673Z,6.92
2022-11-16T06:53:57.127Z,6.99
2022-11-16T06:56:23.806Z,7.02
2022-11-16T06:58:53.265Z,7.03
2022-11-16T07:01:20.410Z,7.05
2022-11-16T07:03:46.966Z,7.12
2022-11-16T07:06:14.356Z,7.07
2022-11-16T07:08:41.298Z,7.06
2022-11-16T07:11:09.550Z,7.12
2022-11-16T07:13:37.774Z,7.00
2022-11-16T07:16:06.732Z,7.01
2022-11-16T07:18:35.610Z,6.98
2022-11-16T07:21:07.439Z,7.08
2022-11-16T07:23:34.556Z,7.18
2022-11-16T07:26:02.670Z,7.10
2022-11-16T07:28:29.708Z,7.08
2022-11-16T07:31:01.637Z,7.11
2022-11-16T07:34:37.303Z,7.33
2022-11-16T07:38:17.803Z,7.38
2022-11-16T07:41:53.425Z,7.28
2022-11-16T07:45:32.264Z,7.28
2022-11-16T07:48:23.916Z,7.36
2022-11-16T07:50:50.420Z,7.33
2022-11-16T07:53:17.176Z,7.32
2022-11-16T07:55:43.621Z,7.27
2022-11-16T07:58:12.769Z,7.37
2022-11-16T08:00:39.347Z,7.52
2022-11-16T08:03:06.627Z,7.55
2022-11-16T08:05:33.113Z,7.51
2022-11-16T08:07:59.608Z,7.53
2022-11-16T08:10:26.123Z,7.50
2022-11-16T08:12:53.257Z,7.44
2022-11-16T08:15:19.811Z,7.36
2022-11-16T08:17:47.754Z,7.30
2022-11-16T08:20:14.509Z,7.37
2022-11-16T08:22:41.021Z,7.35
2022-11-16T08:25:07.994Z,7.49
2022-11-16T08:27:35.460Z,7.52
2022-11-16T08:30:04.780Z,7.70
2022-11-16T08:32:31.550Z,7.69
2022-11-16T08:34:58.071Z,7.65
2022-11-16T08:37:26.023Z,7.69
2022-11-16T08:39:52.503Z,7.72
2022-11-16T08:42:18.946Z,7.72
2022-11-16T08:44:45.847Z,7.74
2022-11-16T08:47:12.772Z,7.71
2022-11-16T08:49:39.297Z,7.54
2022-11-16T08:52:06.188Z,7.62
2022-11-16T08:54:32.698Z,7.60
2022-11-16T08:56:59.344Z,7.63
2022-11-16T08:59:25.892Z,7.80
2022-11-16T09:01:52.567Z,7.87
2022-11-16T09:04:19.630Z,7.87
2022-11-16T09:06:46.307Z,7.65
2022-11-16T09:09:12.971Z,7.64
2022-11-16T09:11:39.578Z,7.75
2022-11-16T09:14:06.282Z,8.05
2022-11-16T09:16:32.793Z,8.16
2022-11-16T09:18:59.353Z,8.28
2022-11-16T09:21:27.724Z,8.29
2022-11-16T09:23:55.495Z,8.22
2022-11-16T09:26:23.563Z,8.03
2022-11-16T09:28:58.841Z,7.95
2022-11-16T09:31:27.623Z,7.94
2022-11-16T09:33:58.676Z,7.95
2022-11-16T09:36:27.448Z,8.02
2022-11-16T09:39:19.431Z,8.16
2022-11-16T09:41:52.394Z,8.24
2022-11-16T09:44:57.508Z,8.02
2022-11-16T09:47:52.025Z,8.15
2022-11-16T09:50:53.117Z,8.34
2022-11-16T09:53:34.250Z,8.15
2022-11-16T09:56:19.181Z,8.02
2022-11-16T09:59:02.741Z,8.02
2022-11-16T10:01:48.301Z,8.07
2022-11-16T10:04:44.353Z,8.15
2022-11-16T10:07:45.815Z,8.19
2022-11-16T10:10:52.341Z,8.43
2022-11-16T10:14:15.735Z,8.28
2022-11-16T10:17:23.157Z,8.23
2022-11-16T10:19:58.593Z,8.35
2022-11-16T10:22:44.052Z,8.56
2022-11-16T10:25:51.168Z,8.71
2022-11-16T10:28:20.721Z,8.72
2022-11-16T10:31:09.196Z,8.76
2022-11-16T10:33:38.151Z,8.78
2022-11-16T10:36:12.985Z,8.91
2022-11-16T10:38:41.126Z,8.98
2022-11-16T10:41:21.350Z,9.07
2022-11-16T10:43:48.707Z,9.05
2022-11-16T10:46:39.716Z,9.09
2022-11-16T10:49:27.172Z,9.12
2022-11-16T10:51:53.994Z,9.22
2022-11-16T10:54:20.475Z,9.40
2022-11-16T10:56:49.742Z,9.76
2022-11-16T10:59:19.394Z,9.73
2022-11-16T11:01:53.165Z,9.88
2022-11-16T11:04:31.320Z,10.23
2022-11-16T11:07:30.603Z,10.09
2022-11-16T11:09:57.165Z,9.65
2022-11-16T11:12:41.188Z,9.39
2022-11-16T11:15:26.178Z,9.52
2022-11-16T11:18:16.807Z,9.89
2022-11-16T11:20:46.863Z,10.22
2022-11-16T11:23:16.397Z,10.28
2022-11-16T11:25:56.711Z,10.46
2022-11-16T11:28:32.577Z,10.23
2022-11-16T11:31:17.320Z,10.23
2022-11-16T11:33:51.102Z,10.20
2022-11-16T11:36:24.026Z,10.33
2022-11-16T11:39:03.467Z,10.40
2022-11-16T11:41:37.019Z,10.35
2022-11-16T11:44:04.756Z,10.39
2022-11-16T11:47:18.344Z,10.34
2022-11-16T11:49:33.616Z,10.36
2022-11-16T11:52:09.359Z,10.37
2022-11-16T11:54:45.671Z,10.32
2022-11-16T11:57:15.630Z,10.28
2022-11-16T11:59:42.301Z,10.13
2022-11-16T12:02:23.984Z,10.46
2022-11-16T12:05:29.902Z,10.93
2022-11-16T12:08:05.664Z,11.01
2022-11-16T12:10:48.806Z,10.93
2022-11-16T12:13:36.958Z,10.46
2022-11-16T12:16:47.695Z,10.71
2022-11-16T12:19:43.785Z,11.05
2022-11-16T12:22:26.407Z,10.67
2022-11-16T12:25:12.396Z,10.93
2022-11-16T12:28:08.553Z,10.90
2022-11-16T12:30:49.047Z,11.00
2022-11-16T12:33:50.228Z,10.70
2022-11-16T12:36:48.283Z,10.72
2022-11-16T12:39:33.223Z,10.64
2022-11-16T12:41:59.707Z,10.63
2022-11-16T12:44:31.896Z,10.74
2022-11-16T12:47:13.549Z,10.66
2022-11-16T12:49:59.233Z,10.71
2022-11-16T12:52:41.381Z,10.59
2022-11-16T12:55:52.880Z,10.63
2022-11-16T12:58:23.537Z,10.74
2022-11-16T13:01:16.288Z,10.57
2022-11-16T13:04:09.699Z,10.53
2022-11-16T13:06:50.874Z,10.22
2022-11-16T13:09:26.390Z,10.23
2022-11-16T13:12:00.642Z,10.26
2022-11-16T13:14:40.091Z,10.48
2022-11-16T13:17:07.787Z,10.60
2022-11-16T13:19:42.037Z,10.59
2022-11-16T13:22:18.005Z,10.76
2022-11-16T13:25:17.871Z,10.79
2022-11-16T13:27:53.966Z,10.90
2022-11-16T13:30:24.797Z,10.92
2022-11-16T13:33:22.566Z,10.93
2022-11-16T13:35:52.548Z,10.86
2022-11-16T13:38:53.827Z,10.96
2022-11-16T13:41:33.782Z,11.11
2022-11-16T13:44:02.061Z,11.24
2022-11-16T13:46:55.906Z,11.01
2022-11-16T13:49:33.790Z,10.73
2022-11-16T13:52:31.748Z,10.71
2022-11-16T13:55:01.614Z,10.80
2022-11-16T13:57:34.112Z,11.06
2022-11-16T14:00:00.595Z,11.21
2022-11-16T14:02:37.440Z,11.34
2022-11-16T14:05:06.662Z,11.22
2022-11-16T14:07:43.264Z,11.19
2022-11-16T14:10:11.450Z,10.98
2022-11-16T14:12:38.245Z,10.98
2022-11-16T14:15:32.035Z,11.01
2022-11-16T14:18:00.820Z,10.81
2022-11-16T14:20:37.251Z,10.66
2022-11-16T14:23:22.500Z,10.58
2022-11-16T14:25:53.307Z,10.60
2022-11-16T14:28:34.866Z,10.53
2022-11-16T14:31:20.243Z,10.62
2022-11-16T14:33:52.355Z,10.59
2022-11-16T14:36:36.403Z,10.62
2022-11-16T14:39:37.239Z,10.61
2022-11-16T14:42:16.319Z,10.57
2022-11-16T14:44:44.015Z,10.39
2022-11-16T14:47:24.819Z,10.23
2022-11-16T14:49:52.208Z,10.11
2022-11-16T14:52:29.196Z,10.03
2022-11-16T14:55:00.669Z,10.01
2022-11-16T14:57:27.260Z,10.06
2022-11-16T15:00:19.585Z,10.16
2022-11-16T15:02:59.150Z,10.01
2022-11-16T15:05:33.732Z,9.89
2022-11-16T15:08:03.743Z,9.80
2022-11-16T15:10:30.395Z,9.73
2022-11-16T15:12:57.860Z,9.73
2022-11-16T15:15:30.453Z,9.76
2022-11-16T15:17:59.767Z,9.67
2022-11-16T15:20:32.256Z,9.52
2022-11-16T15:23:00.344Z,9.47
2022-11-16T15:25:34.858Z,9.40
2022-11-16T15:28:13.247Z,9.41
2022-11-16T15:30:40.558Z,9.28
2022-11-16T15:33:15.532Z,9.23
2022-11-16T15:35:42.610Z,9.11
2022-11-16T15:38:22.991Z,9.06
2022-11-16T15:40:51.817Z,9.11
2022-11-16T15:43:20.155Z,9.16
2022-11-16T15:45:47.304Z,9.13
2022-11-16T15:48:22.589Z,9.23
2022-11-16T15:51:05.027Z,9.22
2022-11-16T15:53:40.577Z,9.20
2022-11-16T15:56:25.068Z,9.14
2022-11-16T15:58:53.919Z,9.03
2022-11-16T16:01:22.169Z,8.96
2022-11-16T16:04:04.214Z,9.04
2022-11-16T16:06:49.731Z,9.03
2022-11-16T16:09:32.988Z,9.04
2022-11-16T16:12:20.861Z,9.10
2022-11-16T16:14:49.297Z,9.13
2022-11-16T16:17:29.923Z,9.14
2022-11-16T16:20:09.193Z,9.08
2022-11-16T16:22:40.084Z,9.04
2022-11-16T16:25:07.416Z,9.03
2022-11-16T16:27:39.542Z,9.00
2022-11-16T16:30:07.426Z,9.01
2022-11-16T16:32:37.062Z,9.00
2022-11-16T16:35:08.590Z,9.01
2022-11-16T16:37:38.619Z,8.98
2022-11-16T16:40:05.999Z,9.01
2022-11-16T16:42:32.702Z,9.03
2022-11-16T16:45:00.398Z,9.09
2022-11-16T16:47:29.540Z,8.98
2022-11-16T16:49:56.019Z,8.90
2022-11-16T16:52:23.107Z,8.88
2022-11-16T16:54:50.434Z,8.96
2022-11-16T16:57:18.745Z,8.94
2022-11-16T16:59:48.313Z,8.86
2022-11-16T17:02:16.230Z,8.83
2022-11-16T17:04:44.057Z,8.90
2022-11-16T17:07:10.767Z,8.91
2022-11-16T17:09:37.359Z,8.87
2022-11-16T17:12:04.199Z,8.72
2022-11-16T17:14:30.748Z,8.62
2022-11-16T17:16:57.486Z,8.63
2022-11-16T17:19:24.435Z,8.40
2022-11-16T17:21:52.143Z,8.21
2022-11-16T17:24:18.817Z,8.22
2022-11-16T17:26:48.455Z,8.35
2022-11-16T17:29:15.376Z,8.36
2022-11-16T17:31:44.898Z,8.39
2022-11-16T17:34:13.829Z,8.33
2022-11-16T17:36:41.402Z,8.24
2022-11-16T17:39:08.024Z,8.25
2022-11-16T17:41:34.927Z,8.26
2022-11-16T17:44:01.489Z,8.27
2022-11-16T17:46:29.424Z,8.35
2022-11-16T17:48:56.438Z,8.31
2022-11-16T17:51:25.073Z,8.31
2022-11-16T17:53:52.667Z,8.14
2022-11-16T17:56:22.018Z,8.12
2022-11-16T17:58:52.118Z,8.11
2022-11-16T18:01:19.191Z,8.07
2022-11-16T18:03:45.951Z,8.10
2022-11-16T18:06:15.243Z,8.15
2022-11-16T18:08:43.733Z,8.15
2022-11-16T18:11:11.777Z,8.00
2022-11-16T18:13:42.344Z,7.96
2022-11-16T18:16:13.628Z,8.00
2022-11-16T18:18:40.280Z,8.06
2022-11-16T18:21:08.207Z,8.08
2022-11-16T18:23:38.285Z,8.07
2022-11-16T18:26:14.038Z,8.09
2022-11-16T18:28:41.236Z,8.11
2022-11-16T18:31:13.281Z,8.05
2022-11-16T18:33:40.127Z,8.05
2022-11-16T18:36:08.331Z,8.06
2022-11-16T18:38:36.464Z,8.03
2022-11-16T18:41:25.191Z,8.01
2022-11-16T18:43:54.333Z,7.89
2022-11-16T18:46:23.777Z,7.64
2022-11-16T18:48:51.426Z,7.52
2022-11-16T18:51:22.388Z,7.40
2022-11-16T18:53:50.191Z,7.45
2022-11-16T18:56:17.788Z,7.56
2022-11-16T18:58:52.471Z,7.59
2022-11-16T19:01:24.635Z,7.50
2022-11-16T19:03:53.554Z,7.52
2022-11-16T19:06:21.169Z,7.54
2022-11-16T19:08:55.552Z,7.54
2022-11-16T19:11:23.457Z,7.68
2022-11-16T19:13:54.411Z,7.80
2022-11-16T19:16:21.526Z,7.84
2022-11-16T19:18:48.314Z,7.93
2022-11-16T19:21:18.635Z,7.93
2022-11-16T19:23:47.794Z,7.97
2022-11-16T19:26:16.051Z,7.99
2022-11-16T19:28:45.013Z,8.03
2022-11-16T19:31:14.005Z,8.07
2022-11-16T19:33:42.008Z,8.05
2022-11-16T19:36:11.632Z,8.07
2022-11-16T19:38:39.225Z,7.96
2022-11-16T19:41:07.678Z,7.97
2022-11-16T19:43:35.281Z,8.05
2022-11-16T19:46:04.221Z,8.07
2022-11-16T19:48:32.813Z,8.06
2022-11-16T19:51:08.151Z,8.08
2022-11-16T19:53:36.234Z,8.05
2022-11-16T19:56:05.015Z,7.98
2022-11-16T19:58:33.235Z,7.86
2022-11-16T20:01:08.000Z,7.79
2022-11-16T20:03:35.513Z,7.77
2022-11-16T20:06:16.492Z,7.75
2022-11-16T20:08:48.357Z,7.75
2022-11-16T20:11:24.305Z,7.66
2022-11-16T20:13:55.925Z,7.71
2022-11-16T20:16:25.664Z,7.73
2022-11-16T20:18:53.577Z,7.73
2022-11-16T20:21:26.128Z,7.72
2022-11-16T20:23:53.523Z,7.64
2022-11-16T20:26:25.205Z,7.59
2022-11-16T20:28:53.022Z,7.42
2022-11-16T20:31:28.850Z,7.33
2022-11-16T20:34:00.461Z,7.30
2022-11-16T20:36:30.499Z,7.29
2022-11-16T20:38:59.032Z,7.31
2022-11-16T20:41:28.318Z,7.29
2022-11-16T20:43:57.298Z,7.29
2022-11-16T20:46:27.289Z,7.32
2022-11-16T20:48:55.950Z,7.31
2022-11-16T20:51:23.299Z,7.34
2022-11-16T20:53:50.731Z,7.28
2022-11-16T20:56:19.530Z,7.30
2022-11-16T20:58:47.185Z,7.30
2022-11-16T21:01:16.823Z,7.39
2022-11-16T21:03:47.139Z,7.39
2022-11-16T21:06:14.466Z,7.47
2022-11-16T21:08:41.877Z,7.49
2022-11-16T21:11:16.780Z,7.40
2022-11-16T21:14:06.076Z,7.25
2022-11-16T21:16:33.897Z,7.16
2022-11-16T21:19:01.382Z,7.19
2022-11-16T21:21:28.478Z,7.39
2022-11-16T21:23:55.255Z,7.44
2022-11-16T21:26:26.974Z,7.53
2022-11-16T21:28:55.479Z,7.61
2022-11-16T21:31:25.719Z,7.61
2022-11-16T21:33:53.396Z,7.54
2022-11-16T21:36:25.296Z,7.57
2022-11-16T21:38:52.919Z,7.72
2022-11-16T21:41:22.314Z,7.64
2022-11-16T21:43:49.020Z,7.63
2022-11-16T21:46:22.007Z,7.58
2022-11-16T21:48:50.924Z,7.57
2022-11-16T21:51:19.641Z,7.65
2022-11-16T21:53:46.387Z,7.60
2022-11-16T21:56:15.561Z,7.64
2022-11-16T21:58:48.173Z,7.49
2022-11-16T22:01:16.198Z,7.29
2022-11-16T22:03:43.269Z,7.24
2022-11-16T22:06:31.812Z,7.35
2022-11-16T22:08:58.371Z,7.36
2022-11-16T22:11:24.919Z,7.41
2022-11-16T22:13:51.481Z,7.41
2022-11-16T22:16:19.613Z,7.41
2022-11-16T22:18:46.478Z,7.35
2022-11-16T22:21:13.262Z,7.38
2022-11-16T22:23:40.039Z,7.35
2022-11-16T22:26:09.324Z,7.10
2022-11-16T22:28:36.742Z,7.16
2022-11-16T22:31:06.007Z,7.22
2022-11-16T22:33:33.699Z,7.30
2022-11-16T22:36:00.966Z,7.30
2022-11-16T22:38:27.589Z,7.15
2022-11-16T22:40:56.494Z,7.04
2022-11-16T22:43:25.378Z,7.04
2022-11-16T22:45:51.832Z,7.02
2022-11-16T22:48:18.325Z,7.05
2022-11-16T22:50:44.785Z,7.09
2022-11-16T22:53:11.224Z,7.14
2022-11-16T22:55:38.599Z,7.13
2022-11-16T22:58:05.796Z,7.12
2022-11-16T23:00:39.003Z,7.09
2022-11-16T23:03:08.519Z,7.05
2022-11-16T23:05:34.978Z,6.97
2022-11-16T23:08:01.442Z,7.01
2022-11-16T23:10:50.903Z,6.98
2022-11-16T23:13:36.143Z,7.02
2022-11-16T23:16:05.911Z,6.95
2022-11-16T23:18:32.370Z,6.92
2022-11-16T23:21:17.432Z,6.90
2022-11-16T23:24:03.072Z,6.96
2022-11-16T23:26:47.824Z,6.98
2022-11-16T23:29:14.533Z,7.01
2022-11-16T23:31:40.995Z,6.91
2022-11-16T23:34:07.395Z,6.80
2022-11-16T23:36:34.350Z,6.85
2022-11-16T23:39:00.746Z,6.78
2022-11-16T23:41:45.781Z,6.76
2022-11-16T23:44:12.292Z,6.73
2022-11-16T23:46:38.773Z,6.67
2022-11-16T23:49:05.378Z,6.60
2022-11-16T23:51:31.778Z,6.62
2022-11-16T23:54:01.287Z,6.57
2022-11-16T23:56:27.685Z,6.56
2022-11-16T23:58:57.374Z,6.55
